createdAt,value
2023-05-09T00:00:44.012Z,41.30
2023-05-09T00:03:15.486Z,41.95
2023-05-09T00:05:46.068Z,49.67
2023-05-09T00:08:16.553Z,47.50
2023-05-09T00:10:47.837Z,48.78
2023-05-09T00:13:21.613Z,40.38
2023-05-09T00:15:55.249Z,34.78
2023-05-09T00:18:26.540Z,43.40
2023-05-09T00:20:58.055Z,41.35
2023-05-09T00:23:28.505Z,39.90
2023-05-09T00:26:00.271Z,51.60
2023-05-09T00:28:31.329Z,40.25
2023-05-09T00:31:01.990Z,48.13
2023-05-09T00:33:32.530Z,41.70
2023-05-09T00:36:03.316Z,43.10
2023-05-09T00:38:34.572Z,41.40
2023-05-09T00:41:23.485Z,42.45
2023-05-09T00:43:54.100Z,37.42
2023-05-09T00:46:24.868Z,39.60
2023-05-09T00:48:58.392Z,43.47
2023-05-09T00:51:30.089Z,39.88
2023-05-09T00:54:01.087Z,49.13
2023-05-09T00:56:31.577Z,43.35
2023-05-09T00:59:02.533Z,37.08
2023-05-09T01:01:34.079Z,44.95
2023-05-09T01:04:05.071Z,40.38
2023-05-09T01:06:39.211Z,47.58
2023-05-09T01:09:13.095Z,52.47
2023-05-09T01:11:47.573Z,73.22
2023-05-09T01:14:21.117Z,63.28
2023-05-09T01:17:04.148Z,46.53
2023-05-09T01:19:42.133Z,47.72
2023-05-09T01:22:14.126Z,38.55
2023-05-09T01:25:02.353Z,38.30
2023-05-09T01:27:49.941Z,48.38
2023-05-09T01:30:21.158Z,57.17
2023-05-09T01:32:53.037Z,49.05
2023-05-09T01:35:28.148Z,43.53
2023-05-09T01:38:00.662Z,44.85
2023-05-09T01:40:32.701Z,38.88
2023-05-09T01:43:04.523Z,37.33
2023-05-09T01:45:35.918Z,45.78
2023-05-09T01:48:06.184Z,59.33
2023-05-09T01:50:38.168Z,52.53
2023-05-09T01:53:08.160Z,56.88
2023-05-09T01:55:39.158Z,56.25
2023-05-09T01:58:10.398Z,51.95
2023-05-09T02:00:42.813Z,62.78
2023-05-09T02:03:13.892Z,55.80
2023-05-09T02:05:46.236Z,70.45
2023-05-09T02:08:19.587Z,67.43
2023-05-09T02:10:51.168Z,73.03
2023-05-09T02:13:21.865Z,60.80
2023-05-09T02:15:52.714Z,73.97
2023-05-09T02:18:41.458Z,76.43
2023-05-09T02:21:12.702Z,50.58
2023-05-09T02:23:43.917Z,55.65
2023-05-09T02:26:15.739Z,53.65
2023-05-09T02:28:49.644Z,39.55
2023-05-09T02:31:22.079Z,39.53
2023-05-09T02:33:53.984Z,39.50
2023-05-09T02:36:25.098Z,39.67
2023-05-09T02:38:56.643Z,42.22
2023-05-09T02:41:29.650Z,39.92
2023-05-09T02:44:01.166Z,41.05
2023-05-09T02:46:32.436Z,46.85
2023-05-09T02:49:02.728Z,42.25
2023-05-09T02:51:33.189Z,38.28
2023-05-09T02:54:03.482Z,43.67
2023-05-09T02:56:34.235Z,41.88
2023-05-09T02:59:05.393Z,37.22
2023-05-09T03:01:35.855Z,45.38
2023-05-09T03:04:06.176Z,39.72
2023-05-09T03:06:39.486Z,42.70
2023-05-09T03:09:09.848Z,43.08
2023-05-09T03:11:40.648Z,38.58
2023-05-09T03:14:29.632Z,46.10
2023-05-09T03:17:00.462Z,40.92
2023-05-09T03:19:36.795Z,46.22
2023-05-09T03:22:08.500Z,54.22
2023-05-09T03:24:46.274Z,51.70
2023-05-09T03:27:16.488Z,45.97
2023-05-09T03:29:48.141Z,46.88
2023-05-09T03:32:19.956Z,48.95
2023-05-09T03:34:51.755Z,45.63
2023-05-09T03:37:23.065Z,44.53
2023-05-09T03:39:54.288Z,52.80
2023-05-09T03:42:26.283Z,39.97
2023-05-09T03:45:00.653Z,54.50
2023-05-09T03:47:32.283Z,47.92
2023-05-09T03:50:03.192Z,60.40
2023-05-09T03:52:33.153Z,52.30
2023-05-09T03:55:05.282Z,54.67
2023-05-09T03:57:39.295Z,51.17
2023-05-09T04:00:11.733Z,63.78
2023-05-09T04:03:02.753Z,62.85
2023-05-09T04:05:50.587Z,59.53
2023-05-09T04:08:29.730Z,62.60
2023-05-09T04:10:59.690Z,51.25
2023-05-09T04:13:31.636Z,56.03
2023-05-09T04:16:06.481Z,59.63
2023-05-09T04:18:37.586Z,59.33
2023-05-09T04:21:07.927Z,62.00
2023-05-09T04:23:40.556Z,59.70
2023-05-09T04:26:15.379Z,64.00
2023-05-09T04:28:48.315Z,51.92
2023-05-09T04:31:20.653Z,59.80
2023-05-09T04:33:53.771Z,59.40
2023-05-09T04:36:25.582Z,62.63
2023-05-09T04:38:57.187Z,50.58
2023-05-09T04:41:29.856Z,51.70
2023-05-09T04:44:00.661Z,55.90
2023-05-09T04:46:30.846Z,53.67
2023-05-09T04:49:01.262Z,54.83
2023-05-09T04:51:49.780Z,50.28
2023-05-09T04:54:20.521Z,66.95
2023-05-09T04:56:53.109Z,53.17
2023-05-09T04:59:24.789Z,50.53
2023-05-09T05:01:55.616Z,43.58
2023-05-09T05:04:25.967Z,44.05
2023-05-09T05:06:56.145Z,46.92
2023-05-09T05:09:26.255Z,47.28
2023-05-09T05:12:01.654Z,41.58
2023-05-09T05:14:37.463Z,48.65
2023-05-09T05:17:10.625Z,48.45
2023-05-09T05:19:41.847Z,50.42
2023-05-09T05:22:12.418Z,41.85
2023-05-09T05:24:45.371Z,42.85
2023-05-09T05:27:17.316Z,38.28
2023-05-09T05:29:49.514Z,39.38
2023-05-09T05:32:20.345Z,42.78
2023-05-09T05:34:51.871Z,42.97
2023-05-09T05:37:22.393Z,40.65
2023-05-09T05:39:53.376Z,46.90
2023-05-09T05:42:24.336Z,48.67
2023-05-09T05:44:54.708Z,42.78
2023-05-09T05:47:25.378Z,40.38
2023-05-09T05:50:00.348Z,38.75
2023-05-09T05:53:07.840Z,38.72
2023-05-09T05:55:38.423Z,44.20
2023-05-09T05:58:09.459Z,38.60
2023-05-09T06:00:40.061Z,42.80
2023-05-09T06:03:15.119Z,44.58
2023-05-09T06:06:04.845Z,49.35
2023-05-09T06:08:38.340Z,40.85
2023-05-09T06:11:09.929Z,42.95
2023-05-09T06:13:43.261Z,35.95
2023-05-09T06:16:20.008Z,35.08
2023-05-09T06:18:55.488Z,38.15
2023-05-09T06:21:26.220Z,26.48
2023-05-09T06:26:30.292Z,22.98
2023-05-09T06:29:02.836Z,30.98
2023-05-09T06:31:34.237Z,37.58
2023-05-09T06:34:04.306Z,26.50
2023-05-09T06:36:35.070Z,22.27
2023-05-09T06:39:05.624Z,21.45
2023-05-09T06:41:35.947Z,23.90
2023-05-09T06:44:06.025Z,26.55
2023-05-09T06:46:36.772Z,36.05
2023-05-09T06:49:07.211Z,31.08
2023-05-09T06:51:37.834Z,28.02
2023-05-09T06:54:11.223Z,27.85
2023-05-09T06:56:41.879Z,29.85
2023-05-09T06:59:14.504Z,31.63
2023-05-09T07:01:46.882Z,33.05
2023-05-09T07:04:18.892Z,30.80
2023-05-09T07:06:49.485Z,29.45
2023-05-09T07:09:22.188Z,30.77
2023-05-09T07:11:52.722Z,35.53
2023-05-09T07:14:23.395Z,31.23
2023-05-09T07:16:55.230Z,33.53
2023-05-09T07:19:30.183Z,25.17
2023-05-09T07:22:00.668Z,23.08
2023-05-09T07:24:31.258Z,27.05
2023-05-09T07:27:04.803Z,28.73
2023-05-09T07:29:36.464Z,21.85
2023-05-09T07:32:07.463Z,24.00
2023-05-09T07:34:38.403Z,24.20
2023-05-09T07:37:08.166Z,19.25
2023-05-09T07:39:38.625Z,16.23
2023-05-09T07:42:09.473Z,17.27
2023-05-09T07:44:40.564Z,33.58
2023-05-09T07:47:11.248Z,20.02
2023-05-09T07:49:44.498Z,21.35
2023-05-09T07:52:14.825Z,21.77
2023-05-09T07:54:45.167Z,15.85
2023-05-09T07:57:18.138Z,26.52
2023-05-09T07:59:49.013Z,36.13
2023-05-09T08:02:19.508Z,16.23
2023-05-09T08:04:52.366Z,26.05
2023-05-09T08:07:25.112Z,16.08
2023-05-09T08:09:55.948Z,17.80
2023-05-09T08:12:29.469Z,15.90
2023-05-09T08:15:00.621Z,20.48
2023-05-09T08:17:33.623Z,28.90
2023-05-09T08:20:04.565Z,16.83
2023-05-09T08:22:35.488Z,19.52
2023-05-09T08:25:06.933Z,22.10
2023-05-09T08:27:37.552Z,28.67
2023-05-09T08:30:08.377Z,18.48
2023-05-09T08:32:38.829Z,28.13
2023-05-09T08:35:10.523Z,19.85
2023-05-09T08:37:41.102Z,28.65
2023-05-09T08:40:12.125Z,23.35
2023-05-09T08:42:45.548Z,20.73
2023-05-09T08:45:17.091Z,22.48
2023-05-09T08:47:48.025Z,22.13
2023-05-09T08:50:19.175Z,23.02
2023-05-09T08:52:53.164Z,20.42
2023-05-09T08:55:23.959Z,30.73
2023-05-09T08:57:54.561Z,20.33
2023-05-09T09:00:25.729Z,191.75
2023-05-09T09:02:57.163Z,24.38
2023-05-09T09:05:40.708Z,20.27
2023-05-09T09:08:12.020Z,40.05
2023-05-09T09:10:50.241Z,32.13
2023-05-09T09:13:22.535Z,19.98
2023-05-09T09:15:54.534Z,15.52
2023-05-09T09:18:27.522Z,30.08
2023-05-09T09:20:59.505Z,30.33
2023-05-09T09:23:31.028Z,31.02
2023-05-09T09:26:03.213Z,22.98
2023-05-09T09:28:34.621Z,28.27
2023-05-09T09:31:20.377Z,21.15
2023-05-09T09:33:51.554Z,20.60
2023-05-09T09:36:30.243Z,27.10
2023-05-09T09:39:02.727Z,14.93
2023-05-09T09:41:34.110Z,15.90
2023-05-09T09:44:11.740Z,15.35
2023-05-09T09:46:46.108Z,25.23
2023-05-09T09:49:17.725Z,16.95
2023-05-09T09:51:53.069Z,16.83
2023-05-09T09:54:24.315Z,14.77
2023-05-09T09:56:55.589Z,17.20
2023-05-09T09:59:27.700Z,17.83
2023-05-09T10:01:58.054Z,14.07
2023-05-09T10:04:30.625Z,16.30
2023-05-09T10:07:06.491Z,15.48
2023-05-09T10:09:39.045Z,19.27
2023-05-09T10:12:10.867Z,20.48
2023-05-09T10:14:44.158Z,23.08
2023-05-09T10:17:16.456Z,21.90
2023-05-09T10:19:48.867Z,21.08
2023-05-09T10:22:20.857Z,23.85
2023-05-09T10:25:00.625Z,21.60
2023-05-09T10:27:33.641Z,23.88
2023-05-09T10:30:06.574Z,20.60
2023-05-09T10:33:00.174Z,18.05
2023-05-09T10:35:33.119Z,14.98
2023-05-09T10:38:04.338Z,20.42
2023-05-09T10:40:36.184Z,31.10
2023-05-09T10:43:08.353Z,16.65
2023-05-09T10:45:40.237Z,32.85
2023-05-09T10:48:10.655Z,34.13
2023-05-09T10:50:43.883Z,18.63
2023-05-09T10:53:20.189Z,25.50
2023-05-09T10:55:57.605Z,21.70
2023-05-09T10:58:28.639Z,28.58
2023-05-09T11:01:01.138Z,30.80
2023-05-09T11:03:51.239Z,26.50
2023-05-09T11:06:41.277Z,24.67
2023-05-09T11:09:44.490Z,27.27
2023-05-09T11:12:22.089Z,37.35
2023-05-09T11:14:54.767Z,33.67
2023-05-09T11:17:36.041Z,52.83
2023-05-09T11:20:07.525Z,33.58
2023-05-09T11:22:44.084Z,32.78
2023-05-09T11:25:17.904Z,28.25
2023-05-09T11:27:50.950Z,30.83
2023-05-09T11:30:23.141Z,40.78
2023-05-09T11:32:56.473Z,29.00
2023-05-09T11:35:33.238Z,24.00
2023-05-09T11:38:05.193Z,27.98
2023-05-09T11:40:36.966Z,31.08
2023-05-09T11:43:10.415Z,28.25
2023-05-09T11:45:41.714Z,27.80
2023-05-09T11:48:13.678Z,27.75
2023-05-09T11:50:44.410Z,32.17
2023-05-09T11:53:14.861Z,34.08
2023-05-09T11:55:45.687Z,38.72
2023-05-09T11:58:17.447Z,44.30
2023-05-09T12:00:48.244Z,30.75
2023-05-09T12:03:19.422Z,29.80
2023-05-09T12:05:50.641Z,31.27
2023-05-09T12:08:21.205Z,28.67
2023-05-09T12:10:52.609Z,32.65
2023-05-09T12:13:24.206Z,31.92
2023-05-09T12:16:01.812Z,29.52
2023-05-09T12:18:32.500Z,40.00
2023-05-09T12:21:03.153Z,34.42
2023-05-09T12:23:37.256Z,44.17
2023-05-09T12:26:09.157Z,29.15
2023-05-09T12:28:40.163Z,36.50
2023-05-09T12:31:11.219Z,41.15
2023-05-09T12:33:42.386Z,35.20
2023-05-09T12:36:14.692Z,32.30
2023-05-09T12:38:57.416Z,36.30
2023-05-09T12:41:39.130Z,42.33
2023-05-09T12:44:12.236Z,31.02
2023-05-09T12:46:42.996Z,33.25
2023-05-09T12:49:23.844Z,38.42
2023-05-09T12:51:55.733Z,40.47
2023-05-09T12:54:27.127Z,37.63
2023-05-09T12:56:59.595Z,40.33
2023-05-09T12:59:31.555Z,28.40
2023-05-09T13:02:02.721Z,18.65
2023-05-09T13:04:33.234Z,18.25
2023-05-09T13:07:10.312Z,19.08
2023-05-09T13:09:55.819Z,18.00
2023-05-09T13:12:25.797Z,27.55
2023-05-09T13:14:56.326Z,29.92
2023-05-09T13:17:26.932Z,41.17
2023-05-09T13:19:57.624Z,23.15
2023-05-09T13:22:28.724Z,26.88
2023-05-09T13:24:58.812Z,19.83
2023-05-09T13:27:29.225Z,22.23
2023-05-09T13:29:59.837Z,35.22
2023-05-09T13:32:30.783Z,31.58
2023-05-09T13:35:01.740Z,32.95
2023-05-09T13:37:32.267Z,40.45
2023-05-09T13:40:04.283Z,29.55
2023-05-09T13:42:35.827Z,22.30
2023-05-09T13:45:07.260Z,17.08
2023-05-09T13:47:38.774Z,26.77
2023-05-09T13:50:09.650Z,25.02
2023-05-09T13:52:40.555Z,19.30
2023-05-09T13:55:11.547Z,21.45
2023-05-09T13:57:41.779Z,21.83
2023-05-09T14:00:13.753Z,19.45
2023-05-09T14:02:45.905Z,18.95
2023-05-09T14:05:18.059Z,15.63
2023-05-09T14:07:49.019Z,17.73
2023-05-09T14:10:19.495Z,13.45
2023-05-09T14:12:50.878Z,13.35
2023-05-09T14:15:23.117Z,14.13
2023-05-09T14:17:54.080Z,14.85
2023-05-09T14:20:25.108Z,16.92
2023-05-09T14:22:56.422Z,13.55
2023-05-09T14:25:27.174Z,18.83
2023-05-09T14:27:57.322Z,17.50
2023-05-09T14:30:28.331Z,15.18
2023-05-09T14:32:59.610Z,17.95
2023-05-09T14:35:31.413Z,15.60
2023-05-09T14:38:02.832Z,14.32
2023-05-09T14:40:33.405Z,17.77
2023-05-09T14:43:07.083Z,15.38
2023-05-09T14:45:37.843Z,14.05
2023-05-09T14:48:08.732Z,15.15
2023-05-09T14:50:39.143Z,14.60
2023-05-09T14:53:09.605Z,12.10
2023-05-09T14:55:40.396Z,12.82
2023-05-09T14:58:10.895Z,14.20
2023-05-09T15:00:41.030Z,12.95
2023-05-09T15:03:11.923Z,14.57
2023-05-09T15:05:42.948Z,15.23
2023-05-09T15:08:12.851Z,17.90
2023-05-09T15:10:43.385Z,14.60
2023-05-09T15:13:13.927Z,15.15
2023-05-09T15:15:44.913Z,15.80
2023-05-09T15:18:17.598Z,15.35
2023-05-09T15:20:47.849Z,15.10
2023-05-09T15:23:18.481Z,19.02
2023-05-09T15:25:51.758Z,15.13
2023-05-09T15:28:22.441Z,15.32
2023-05-09T15:30:53.007Z,15.02
2023-05-09T15:33:23.125Z,14.38
2023-05-09T15:35:58.420Z,14.82
2023-05-09T15:38:29.418Z,18.17
2023-05-09T15:41:00.269Z,18.15
2023-05-09T15:43:30.602Z,15.90
2023-05-09T15:46:01.495Z,19.63
2023-05-09T15:48:32.425Z,21.65
2023-05-09T15:51:04.013Z,20.83
2023-05-09T15:53:34.583Z,25.98
2023-05-09T15:56:05.512Z,23.92
2023-05-09T15:58:36.574Z,23.05
2023-05-09T16:01:07.233Z,25.40
2023-05-09T16:03:38.047Z,27.55
2023-05-09T16:06:09.695Z,23.00
2023-05-09T16:08:39.922Z,21.77
2023-05-09T16:11:11.468Z,21.73
2023-05-09T16:13:42.023Z,25.17
2023-05-09T16:16:12.673Z,24.98
2023-05-09T16:18:42.996Z,20.45
2023-05-09T16:21:13.971Z,29.92
2023-05-09T16:23:43.979Z,31.42
2023-05-09T16:26:14.989Z,26.25
2023-05-09T16:28:45.391Z,27.05
2023-05-09T16:31:16.111Z,26.42
2023-05-09T16:33:48.187Z,22.73
2023-05-09T16:36:18.946Z,22.75
2023-05-09T16:38:48.976Z,21.40
2023-05-09T16:41:19.502Z,23.35
2023-05-09T16:43:49.501Z,22.88
2023-05-09T16:46:20.699Z,20.48
2023-05-09T16:48:54.481Z,21.80
2023-05-09T16:51:25.953Z,21.27
2023-05-09T16:53:57.017Z,25.95
2023-05-09T16:56:27.107Z,27.25
2023-05-09T16:58:57.945Z,22.45
2023-05-09T17:01:28.554Z,29.25
2023-05-09T17:03:58.544Z,33.75
2023-05-09T17:06:29.992Z,29.48
2023-05-09T17:09:00.471Z,26.50
2023-05-09T17:11:31.521Z,27.25
2023-05-09T17:14:03.275Z,27.55
2023-05-09T17:16:35.897Z,21.02
2023-05-09T17:19:08.032Z,28.58
2023-05-09T17:21:42.517Z,21.08
2023-05-09T17:24:12.705Z,26.50
2023-05-09T17:26:42.776Z,22.70
2023-05-09T17:29:13.319Z,30.92
2023-05-09T17:31:44.075Z,20.85
2023-05-09T17:34:15.267Z,29.17
2023-05-09T17:36:46.130Z,20.35
2023-05-09T17:39:18.777Z,24.05
2023-05-09T17:41:50.070Z,22.95
2023-05-09T17:44:20.490Z,25.85
2023-05-09T17:46:51.570Z,23.23
2023-05-09T17:49:21.502Z,24.95
2023-05-09T17:51:53.523Z,26.55
2023-05-09T17:54:24.577Z,28.17
2023-05-09T17:57:00.181Z,23.17
2023-05-09T17:59:31.570Z,22.13
2023-05-09T18:02:02.106Z,30.98
2023-05-09T18:04:33.949Z,23.05
2023-05-09T18:07:04.152Z,26.23
2023-05-09T18:09:34.575Z,25.90
2023-05-09T18:12:04.506Z,26.77
2023-05-09T18:14:35.063Z,25.67
2023-05-09T18:17:05.631Z,29.35
2023-05-09T18:19:36.713Z,23.80
2023-05-09T18:22:07.333Z,32.05
2023-05-09T18:24:38.087Z,30.38
2023-05-09T18:27:09.326Z,35.97
2023-05-09T18:29:40.090Z,36.22
2023-05-09T18:32:10.580Z,43.58
2023-05-09T18:34:41.112Z,45.80
2023-05-09T18:37:12.783Z,41.75
2023-05-09T18:39:44.241Z,40.33
2023-05-09T18:42:16.360Z,35.08
2023-05-09T18:44:49.383Z,35.05
2023-05-09T18:47:20.108Z,39.90
2023-05-09T18:49:51.105Z,33.80
2023-05-09T18:52:23.819Z,38.88
2023-05-09T18:54:54.549Z,31.05
2023-05-09T18:57:24.875Z,31.92
2023-05-09T18:59:55.562Z,30.83
2023-05-09T19:02:26.626Z,29.75
2023-05-09T19:04:57.213Z,27.20
2023-05-09T19:07:27.987Z,32.40
2023-05-09T19:09:58.237Z,32.05
2023-05-09T19:12:30.005Z,28.40
2023-05-09T19:15:00.152Z,31.45
2023-05-09T19:17:31.453Z,29.08
2023-05-09T19:20:03.575Z,26.90
2023-05-09T19:22:34.135Z,28.75
2023-05-09T19:25:04.195Z,29.85
2023-05-09T19:27:34.632Z,29.95
2023-05-09T19:30:06.482Z,24.70
2023-05-09T19:32:37.131Z,41.38
2023-05-09T19:35:08.196Z,30.05
2023-05-09T19:37:41.892Z,31.67
2023-05-09T19:40:15.901Z,30.05
2023-05-09T19:42:46.189Z,32.90
2023-05-09T19:45:17.173Z,33.92
2023-05-09T19:47:48.000Z,30.60
2023-05-09T19:50:22.170Z,28.10
2023-05-09T19:52:52.123Z,37.65
2023-05-09T19:55:23.679Z,30.08
2023-05-09T19:57:53.623Z,32.90
2023-05-09T20:00:27.284Z,40.92
2023-05-09T20:03:04.805Z,35.05
2023-05-09T20:05:34.907Z,46.40
2023-05-09T20:08:05.446Z,42.10
2023-05-09T20:10:35.674Z,38.03
2023-05-09T20:13:05.956Z,42.70
2023-05-09T20:15:36.660Z,34.53
2023-05-09T20:18:08.196Z,36.95
2023-05-09T20:20:39.585Z,50.25
2023-05-09T20:23:11.246Z,48.88
2023-05-09T20:25:41.914Z,44.30
2023-05-09T20:28:13.407Z,36.85
2023-05-09T20:30:46.141Z,38.83
2023-05-09T20:33:16.969Z,46.78
2023-05-09T20:35:49.954Z,36.03
2023-05-09T20:38:21.713Z,41.83
2023-05-09T20:40:52.128Z,34.67
2023-05-09T20:43:22.288Z,35.38
2023-05-09T20:45:53.179Z,41.42
2023-05-09T20:48:24.767Z,38.60
2023-05-09T20:50:55.710Z,33.60
2023-05-09T20:53:30.556Z,35.33
2023-05-09T20:56:03.692Z,37.88
2023-05-09T20:58:35.803Z,34.70
2023-05-09T21:01:06.031Z,36.83
2023-05-09T21:03:40.937Z,44.03
2023-05-09T21:06:12.216Z,44.47
2023-05-09T21:08:43.222Z,44.00
2023-05-09T21:11:13.775Z,45.22
2023-05-09T21:13:44.980Z,39.88
2023-05-09T21:16:18.241Z,39.05
2023-05-09T21:18:48.216Z,44.95
2023-05-09T21:21:19.253Z,47.28
2023-05-09T21:23:52.014Z,40.65
2023-05-09T21:26:24.306Z,39.90
2023-05-09T21:28:55.473Z,44.55
2023-05-09T21:31:26.221Z,41.40
2023-05-09T21:33:57.158Z,47.08
2023-05-09T21:36:27.342Z,39.72
2023-05-09T21:38:58.252Z,50.85
2023-05-09T21:41:28.995Z,55.30
2023-05-09T21:43:59.862Z,45.03
2023-05-09T21:46:29.847Z,44.60
2023-05-09T21:49:00.751Z,38.35
2023-05-09T21:51:32.255Z,42.22
2023-05-09T21:54:02.760Z,44.92
2023-05-09T21:56:33.748Z,44.38
2023-05-09T21:59:04.314Z,43.10
2023-05-09T22:01:34.999Z,45.88
2023-05-09T22:04:05.806Z,39.95
2023-05-09T22:06:36.022Z,43.17
2023-05-09T22:09:07.814Z,40.08
2023-05-09T22:11:41.034Z,45.80
2023-05-09T22:14:11.556Z,47.08
2023-05-09T22:16:42.336Z,44.67
2023-05-09T22:19:12.776Z,42.08
2023-05-09T22:21:45.973Z,36.50
2023-05-09T22:24:19.794Z,31.70
2023-05-09T22:26:49.971Z,35.22
2023-05-09T22:29:20.309Z,33.95
2023-05-09T22:31:50.829Z,42.00
2023-05-09T22:34:23.812Z,33.00
2023-05-09T22:36:56.112Z,35.05
2023-05-09T22:39:26.263Z,39.70
2023-05-09T22:41:57.301Z,37.22
2023-05-09T22:44:28.159Z,23.75
2023-05-09T22:46:58.274Z,29.27
2023-05-09T22:49:29.047Z,35.25
2023-05-09T22:51:59.545Z,38.83
2023-05-09T22:54:29.801Z,38.38
2023-05-09T22:57:00.321Z,43.00
2023-05-09T22:59:31.577Z,38.55
2023-05-09T23:02:02.246Z,30.67
2023-05-09T23:04:33.407Z,29.30
2023-05-09T23:07:04.211Z,40.38
2023-05-09T23:09:35.886Z,29.38
2023-05-09T23:12:06.595Z,33.30
2023-05-09T23:14:37.290Z,29.95
2023-05-09T23:17:07.690Z,33.40
2023-05-09T23:19:39.195Z,27.23
2023-05-09T23:22:10.288Z,33.95
2023-05-09T23:24:43.561Z,30.10
2023-05-09T23:27:13.888Z,36.83
2023-05-09T23:29:44.616Z,35.25
2023-05-09T23:32:14.896Z,28.80
2023-05-09T23:34:44.833Z,27.02
2023-05-09T23:37:15.431Z,33.30
2023-05-09T23:39:46.370Z,27.75
2023-05-09T23:42:16.844Z,32.47
2023-05-09T23:44:49.040Z,30.55
2023-05-09T23:47:22.002Z,34.70
2023-05-09T23:49:52.355Z,33.15
2023-05-09T23:52:22.897Z,34.08
2023-05-09T23:54:54.903Z,29.13
2023-05-09T23:57:27.525Z,25.80
